createdAt,value
2019-05-12T00:01:53.423Z,99.90
2019-05-12T00:04:23.994Z,99.90
2019-05-12T00:06:54.583Z,99.90
2019-05-12T00:09:25.045Z,99.90
2019-05-12T00:11:55.467Z,99.90
2019-05-12T00:14:28.122Z,99.90
2019-05-12T00:16:58.183Z,99.90
2019-05-12T00:19:28.746Z,99.90
2019-05-12T00:21:59.222Z,99.90
2019-05-12T00:24:29.651Z,99.90
2019-05-12T00:27:02.739Z,99.90
2019-05-12T00:29:33.272Z,99.90
2019-05-12T00:32:03.695Z,99.90
2019-05-12T00:34:34.121Z,99.90
2019-05-12T00:37:04.754Z,99.90
2019-05-12T00:39:35.184Z,99.90
2019-05-12T00:42:07.751Z,99.90
2019-05-12T00:44:39.017Z,99.90
2019-05-12T00:47:09.740Z,99.90
2019-05-12T00:52:09.775Z,99.90
2019-05-12T00:54:40.406Z,99.90
2019-05-12T00:57:10.835Z,99.90
2019-05-12T00:59:41.264Z,99.90
2019-05-12T01:04:41.295Z,99.90
2019-05-12T01:07:11.827Z,99.90
2019-05-12T01:09:43.275Z,99.90
2019-05-12T01:12:13.707Z,99.90
2019-05-12T01:14:44.128Z,99.90
2019-05-12T01:17:14.555Z,99.90
2019-05-12T01:19:45.189Z,99.90
2019-05-12T01:22:15.615Z,99.90
2019-05-12T01:24:48.202Z,99.90
2019-05-12T01:27:18.201Z,99.90
2019-05-12T01:29:48.636Z,99.90
2019-05-12T01:32:30.421Z,99.90
2019-05-12T01:37:30.568Z,99.90
2019-05-12T01:40:00.997Z,99.90
2019-05-12T01:42:31.423Z,99.90
2019-05-12T01:45:01.869Z,99.90
2019-05-12T01:47:32.281Z,99.90
2019-05-12T01:52:32.414Z,99.90
2019-05-12T01:55:02.849Z,99.90
2019-05-12T01:57:33.470Z,99.90
2019-05-12T02:00:04.106Z,99.90
2019-05-12T02:02:34.640Z,99.90
2019-05-12T02:05:09.715Z,99.90
2019-05-12T02:07:44.912Z,99.90
2019-05-12T02:10:17.798Z,99.90
2019-05-12T02:12:49.043Z,99.90
2019-05-12T02:15:20.274Z,99.90
2019-05-12T02:17:50.819Z,99.90
2019-05-12T02:20:22.365Z,99.90
2019-05-12T02:22:52.864Z,99.90
2019-05-12T02:25:23.329Z,99.90
2019-05-12T02:27:53.749Z,99.90
2019-05-12T02:30:25.309Z,99.90
2019-05-12T02:32:59.009Z,99.90
2019-05-12T02:35:28.112Z,99.90
2019-05-12T02:37:58.737Z,99.90
2019-05-12T02:40:29.181Z,99.90
2019-05-12T02:42:59.804Z,99.90
2019-05-12T02:45:30.225Z,99.90
2019-05-12T02:48:00.649Z,99.90
2019-05-12T02:50:37.195Z,99.90
2019-05-12T02:53:08.209Z,99.90
2019-05-12T02:55:39.542Z,99.90
2019-05-12T02:58:15.159Z,99.90
2019-05-12T03:00:45.944Z,99.90
2019-05-12T03:03:19.414Z,99.90
2019-05-12T03:05:54.721Z,99.90
2019-05-12T03:08:25.916Z,99.90
2019-05-12T03:10:57.507Z,99.90
2019-05-12T03:13:27.959Z,99.90
2019-05-12T03:15:58.385Z,99.90
2019-05-12T03:18:28.851Z,99.90
2019-05-12T03:21:00.376Z,99.90
2019-05-12T03:23:30.799Z,99.90
2019-05-12T03:26:01.274Z,99.90
2019-05-12T03:28:35.263Z,99.90
2019-05-12T03:31:07.676Z,99.90
2019-05-12T03:33:43.488Z,99.90
2019-05-12T03:36:09.792Z,99.90
2019-05-12T03:38:40.113Z,99.90
2019-05-12T03:41:14.405Z,99.90
2019-05-12T03:43:44.873Z,99.90
2019-05-12T03:46:15.597Z,99.90
2019-05-12T03:48:46.123Z,99.90
2019-05-12T03:51:16.619Z,99.90
2019-05-12T03:53:47.080Z,99.90
2019-05-12T03:56:17.504Z,99.90
2019-05-12T03:58:47.983Z,99.90
2019-05-12T04:01:18.463Z,99.90
2019-05-12T04:03:48.997Z,99.90
2019-05-12T04:06:19.521Z,99.90
2019-05-12T04:08:50.049Z,99.90
2019-05-12T04:11:24.870Z,99.90
2019-05-12T04:13:55.032Z,99.90
2019-05-12T04:16:25.738Z,99.90
2019-05-12T04:18:56.166Z,99.90
2019-05-12T04:21:26.765Z,99.90
2019-05-12T04:23:57.220Z,99.90
2019-05-12T04:26:27.650Z,99.90
2019-05-12T04:28:58.133Z,99.90
2019-05-12T04:31:28.602Z,99.90
2019-05-12T04:33:59.031Z,99.90
2019-05-12T04:36:29.459Z,99.90
2019-05-12T04:38:59.884Z,99.90
2019-05-12T04:41:30.313Z,99.90
2019-05-12T04:44:00.726Z,99.90
2019-05-12T04:46:34.390Z,99.90
2019-05-12T04:49:05.292Z,99.90
2019-05-12T04:51:36.435Z,99.90
2019-05-12T04:54:06.954Z,99.90
2019-05-12T04:56:37.585Z,99.90
2019-05-12T04:59:08.011Z,99.90
2019-05-12T05:01:38.487Z,99.90
2019-05-12T05:04:09.046Z,99.90
2019-05-12T05:06:39.588Z,99.90
2019-05-12T05:09:10.540Z,99.90
2019-05-12T05:11:41.071Z,99.90
2019-05-12T05:14:13.529Z,99.90
2019-05-12T05:16:45.093Z,99.90
2019-05-12T05:19:15.625Z,99.90
2019-05-12T05:21:46.053Z,99.90
2019-05-12T05:24:16.478Z,99.90
2019-05-12T05:26:46.910Z,99.90
2019-05-12T05:29:17.331Z,99.90
2019-05-12T05:31:47.805Z,99.90
2019-05-12T05:34:18.291Z,99.90
2019-05-12T05:36:50.967Z,99.90
2019-05-12T05:39:20.780Z,99.90
2019-05-12T05:41:51.237Z,99.90
2019-05-12T05:44:23.852Z,99.90
2019-05-12T05:46:56.128Z,99.90
2019-05-12T05:49:26.085Z,99.90
2019-05-12T05:51:57.581Z,99.90
2019-05-12T05:54:31.585Z,99.90
2019-05-12T05:57:02.958Z,99.90
2019-05-12T05:59:36.481Z,99.90
2019-05-12T06:02:05.102Z,99.90
2019-05-12T06:04:39.076Z,99.90
2019-05-12T06:07:08.077Z,99.90
2019-05-12T06:09:38.498Z,99.90
2019-05-12T06:12:10.119Z,99.90
2019-05-12T06:14:41.046Z,99.90
2019-05-12T06:17:11.624Z,99.90
2019-05-12T06:19:43.783Z,99.90
2019-05-12T06:22:18.230Z,99.90
2019-05-12T06:24:49.218Z,99.90
2019-05-12T06:27:20.932Z,99.90
2019-05-12T06:30:00.633Z,99.90
2019-05-12T06:32:25.124Z,99.90
2019-05-12T06:35:01.258Z,99.90
2019-05-12T06:37:27.913Z,99.90
2019-05-12T06:40:00.604Z,99.90
2019-05-12T06:42:31.252Z,99.90
2019-05-12T06:45:03.691Z,99.90
2019-05-12T06:47:34.453Z,99.90
2019-05-12T06:50:05.157Z,99.90
2019-05-12T06:52:38.539Z,99.90
2019-05-12T06:55:08.070Z,99.90
2019-05-12T06:57:39.976Z,99.90
2019-05-12T07:00:11.633Z,99.90
2019-05-12T07:02:50.018Z,99.90
2019-05-12T07:05:14.719Z,99.90
2019-05-12T07:07:46.197Z,99.90
2019-05-12T07:10:35.725Z,99.90
2019-05-12T07:12:59.008Z,99.90
2019-05-12T07:15:23.217Z,99.90
2019-05-12T07:17:57.981Z,99.90
2019-05-12T07:20:29.150Z,99.90
2019-05-12T07:23:00.614Z,99.90
2019-05-12T07:25:33.727Z,99.90
2019-05-12T07:28:07.528Z,99.90
2019-05-12T07:30:36.394Z,99.90
2019-05-12T07:35:39.650Z,99.90
2019-05-12T07:38:12.074Z,99.90
2019-05-12T07:40:45.740Z,99.90
2019-05-12T07:43:20.598Z,99.90
2019-05-12T07:45:56.644Z,99.90
2019-05-12T07:48:25.259Z,99.90
2019-05-12T07:51:00.426Z,99.90
2019-05-12T07:53:28.163Z,97.80
2019-05-12T07:55:58.766Z,95.80
2019-05-12T07:58:29.239Z,93.20
2019-05-12T08:01:07.203Z,92.70
2019-05-12T08:03:34.307Z,92.50
2019-05-12T08:06:04.621Z,88.90
2019-05-12T08:08:41.875Z,87.50
2019-05-12T08:11:10.116Z,88.10
2019-05-12T08:13:41.014Z,84.50
2019-05-12T08:16:14.147Z,80.10
2019-05-12T08:18:44.590Z,69.00
2019-05-12T08:21:15.252Z,58.00
2019-05-12T08:23:45.677Z,57.30
2019-05-12T08:26:18.636Z,57.20
2019-05-12T08:28:48.192Z,55.70
2019-05-12T08:31:23.494Z,55.00
2019-05-12T08:33:50.969Z,52.40
2019-05-12T08:36:23.453Z,48.90
2019-05-12T08:38:53.747Z,50.70
2019-05-12T08:41:24.411Z,50.00
2019-05-12T08:43:58.337Z,46.70
2019-05-12T08:46:28.168Z,44.20
2019-05-12T08:49:02.245Z,44.80
2019-05-12T08:51:33.745Z,44.20
2019-05-12T08:54:07.824Z,40.80
2019-05-12T08:56:35.973Z,42.80
2019-05-12T08:59:09.573Z,42.00
2019-05-12T09:01:40.719Z,40.40
2019-05-12T09:04:15.130Z,36.20
2019-05-12T09:06:44.122Z,30.50
2019-05-12T09:09:14.875Z,30.80
2019-05-12T09:11:45.293Z,34.70
2019-05-12T09:14:15.822Z,34.30
2019-05-12T09:16:46.252Z,32.70
2019-05-12T09:19:23.539Z,32.30
2019-05-12T09:21:48.743Z,30.00
2019-05-12T09:24:26.899Z,30.60
2019-05-12T09:26:51.234Z,27.40
2019-05-12T09:29:21.661Z,29.00
2019-05-12T09:31:53.195Z,28.20
2019-05-12T09:34:23.735Z,29.50
2019-05-12T09:36:59.488Z,30.40
2019-05-12T09:39:26.351Z,29.20
2019-05-12T09:41:56.829Z,29.20
2019-05-12T09:44:30.439Z,29.20
2019-05-12T09:46:59.846Z,32.00
2019-05-12T09:49:36.727Z,31.40
2019-05-12T09:52:03.651Z,32.00
2019-05-12T09:54:40.626Z,33.90
2019-05-12T09:57:06.970Z,34.30
2019-05-12T09:59:37.537Z,34.40
2019-05-12T10:02:10.417Z,33.90
2019-05-12T10:04:40.031Z,34.70
2019-05-12T10:07:10.561Z,36.40
2019-05-12T10:09:41.302Z,36.50
2019-05-12T10:12:13.545Z,35.30
2019-05-12T10:14:45.839Z,33.20
2019-05-12T10:17:20.364Z,33.90
2019-05-12T10:19:54.194Z,33.90
2019-05-12T10:22:23.538Z,33.30
2019-05-12T10:24:58.355Z,32.30
2019-05-12T10:27:31.787Z,29.50
2019-05-12T10:30:05.621Z,28.80
2019-05-12T10:32:31.623Z,29.90
2019-05-12T10:35:02.060Z,30.20
2019-05-12T10:37:32.477Z,30.40
2019-05-12T10:40:04.498Z,30.00
2019-05-12T10:42:39.849Z,29.10
2019-05-12T10:45:10.867Z,30.50
2019-05-12T10:47:39.918Z,29.40
2019-05-12T10:50:11.067Z,27.30
2019-05-12T10:52:43.870Z,27.50
2019-05-12T10:55:14.455Z,27.60
2019-05-12T10:57:47.237Z,27.10
2019-05-12T11:00:25.191Z,29.50
2019-05-12T11:02:53.381Z,28.40
2019-05-12T11:05:26.091Z,26.90
2019-05-12T11:08:00.357Z,27.30
2019-05-12T11:10:27.874Z,27.20
2019-05-12T11:12:59.114Z,27.20
2019-05-12T11:15:30.590Z,29.60
2019-05-12T11:18:20.481Z,29.80
2019-05-12T11:20:51.415Z,29.60
2019-05-12T11:23:24.235Z,28.80
2019-05-12T11:25:54.006Z,29.10
2019-05-12T11:28:24.593Z,29.70
2019-05-12T11:30:55.169Z,29.60
2019-05-12T11:33:25.801Z,29.90
2019-05-12T11:35:56.444Z,31.20
2019-05-12T11:38:27.067Z,33.10
2019-05-12T11:40:57.489Z,33.60
2019-05-12T11:43:29.752Z,32.70
2019-05-12T11:46:01.202Z,31.20
2019-05-12T11:48:33.732Z,28.70
2019-05-12T11:51:05.757Z,29.20
2019-05-12T11:53:36.291Z,29.20
2019-05-12T11:56:07.785Z,28.70
2019-05-12T11:58:41.307Z,27.30
2019-05-12T12:01:14.014Z,27.20
2019-05-12T12:03:44.563Z,27.30
2019-05-12T12:06:14.968Z,26.10
2019-05-12T12:08:45.398Z,26.60
2019-05-12T12:11:21.968Z,26.70
2019-05-12T12:13:49.733Z,26.50
2019-05-12T12:16:20.205Z,27.10
2019-05-12T12:18:59.567Z,27.70
2019-05-12T12:21:23.718Z,25.70
2019-05-12T12:23:54.315Z,25.50
2019-05-12T12:26:30.406Z,25.80
2019-05-12T12:28:58.529Z,24.70
2019-05-12T12:31:37.242Z,25.40
2019-05-12T12:34:03.586Z,24.60
2019-05-12T12:36:36.187Z,25.30
2019-05-12T12:39:07.828Z,24.50
2019-05-12T12:41:44.157Z,25.70
2019-05-12T12:44:10.318Z,26.70
2019-05-12T12:46:40.894Z,25.70
2019-05-12T12:49:13.912Z,25.50
2019-05-12T12:51:44.574Z,25.40
2019-05-12T12:54:14.995Z,25.70
2019-05-12T12:56:45.421Z,26.50
2019-05-12T12:59:15.941Z,26.50
2019-05-12T13:01:46.377Z,26.80
2019-05-12T13:04:16.805Z,25.40
2019-05-12T13:06:47.232Z,24.00
2019-05-12T13:09:24.342Z,23.30
2019-05-12T13:11:50.182Z,23.10
2019-05-12T13:14:20.665Z,24.50
2019-05-12T13:16:54.670Z,24.10
2019-05-12T13:19:23.802Z,24.60
2019-05-12T13:21:54.290Z,24.20
2019-05-12T13:24:24.727Z,25.30
2019-05-12T13:26:55.157Z,25.10
2019-05-12T13:29:34.511Z,24.40
2019-05-12T13:31:58.678Z,22.70
2019-05-12T13:34:33.916Z,22.60
2019-05-12T13:37:03.337Z,21.10
2019-05-12T13:39:33.663Z,22.80
2019-05-12T13:42:04.168Z,23.20
2019-05-12T13:44:38.771Z,22.80
2019-05-12T13:47:06.661Z,22.20
2019-05-12T13:49:42.681Z,23.80
2019-05-12T13:52:10.383Z,23.60
2019-05-12T13:54:43.541Z,23.40
2019-05-12T13:57:13.409Z,24.10
2019-05-12T13:59:43.915Z,25.10
2019-05-12T14:02:22.037Z,25.00
2019-05-12T14:04:46.805Z,25.10
2019-05-12T14:07:20.113Z,26.60
2019-05-12T14:09:49.415Z,24.70
2019-05-12T14:12:20.146Z,24.80
2019-05-12T14:14:50.578Z,24.10
2019-05-12T14:17:23.390Z,22.70
2019-05-12T14:19:53.349Z,22.70
2019-05-12T14:22:26.340Z,22.80
2019-05-12T14:24:55.967Z,22.50
2019-05-12T14:27:28.730Z,23.50
2019-05-12T14:30:00.286Z,23.90
2019-05-12T14:32:30.628Z,24.30
2019-05-12T14:35:01.057Z,24.00
2019-05-12T14:37:33.508Z,24.70
2019-05-12T14:40:06.518Z,26.50
2019-05-12T14:42:39.696Z,24.60
2019-05-12T14:45:09.280Z,25.20
2019-05-12T14:47:39.742Z,24.70
2019-05-12T14:50:10.169Z,23.50
2019-05-12T14:52:40.652Z,22.90
2019-05-12T14:55:13.636Z,23.40
2019-05-12T14:57:43.499Z,23.60
2019-05-12T15:00:19.999Z,23.60
2019-05-12T15:02:47.323Z,23.80
2019-05-12T15:05:17.751Z,24.00
2019-05-12T15:07:53.749Z,24.40
2019-05-12T15:10:19.900Z,25.20
2019-05-12T15:12:50.661Z,26.30
2019-05-12T15:15:21.198Z,26.60
2019-05-12T15:17:56.678Z,26.00
2019-05-12T15:20:24.717Z,25.70
2019-05-12T15:22:55.487Z,25.10
2019-05-12T15:25:29.479Z,25.40
2019-05-12T15:27:58.044Z,27.30
2019-05-12T15:30:28.458Z,26.50
2019-05-12T15:32:58.886Z,26.30
2019-05-12T15:35:29.324Z,26.80
2019-05-12T15:37:59.750Z,26.60
2019-05-12T15:40:30.178Z,27.30
2019-05-12T15:43:03.071Z,27.60
2019-05-12T15:45:34.261Z,28.70
2019-05-12T15:48:04.837Z,29.60
2019-05-12T15:50:35.270Z,32.30
2019-05-12T15:53:05.692Z,36.00
2019-05-12T15:55:36.174Z,38.30
2019-05-12T15:58:06.760Z,40.00
2019-05-12T16:00:38.506Z,42.10
2019-05-12T16:03:09.040Z,44.20
2019-05-12T16:05:39.463Z,45.20
2019-05-12T16:08:09.890Z,46.40
2019-05-12T16:10:40.325Z,46.70
2019-05-12T16:13:15.505Z,48.80
2019-05-12T16:15:43.896Z,50.60
2019-05-12T16:18:14.557Z,51.20
2019-05-12T16:20:44.995Z,53.10
2019-05-12T16:23:23.811Z,55.20
2019-05-12T16:25:47.547Z,56.00
2019-05-12T16:28:23.403Z,56.60
2019-05-12T16:30:51.107Z,58.50
2019-05-12T16:33:22.779Z,59.10
2019-05-12T16:35:54.603Z,62.20
2019-05-12T16:38:25.153Z,64.40
2019-05-12T16:40:56.711Z,65.60
2019-05-12T16:43:29.464Z,67.50
2019-05-12T16:45:59.198Z,69.90
2019-05-12T16:48:33.264Z,70.40
2019-05-12T16:51:03.316Z,69.30
2019-05-12T16:53:34.165Z,70.50
2019-05-12T16:56:04.764Z,70.60
2019-05-12T16:58:35.535Z,71.10
2019-05-12T17:01:06.170Z,71.50
2019-05-12T17:03:36.591Z,73.80
2019-05-12T17:06:07.020Z,77.00
2019-05-12T17:08:37.443Z,80.80
2019-05-12T17:11:23.079Z,82.00
2019-05-12T17:13:40.327Z,84.20
2019-05-12T17:16:10.773Z,88.30
2019-05-12T17:18:41.202Z,90.70
2019-05-12T17:21:13.991Z,92.50
2019-05-12T17:23:43.703Z,94.80
2019-05-12T17:26:14.137Z,97.20
2019-05-12T17:28:44.599Z,98.20
2019-05-12T17:31:15.330Z,99.70
2019-05-12T17:33:45.810Z,98.60
2019-05-12T17:36:18.014Z,99.70
2019-05-12T17:38:51.137Z,99.90
2019-05-12T17:41:20.367Z,99.90
2019-05-12T17:46:23.327Z,99.90
2019-05-12T17:48:53.801Z,99.90
2019-05-12T17:51:26.725Z,99.90
2019-05-12T17:53:57.417Z,99.90
2019-05-12T17:56:33.937Z,99.90
2019-05-12T17:58:59.916Z,99.90
2019-05-12T18:01:34.942Z,99.90
2019-05-12T18:04:04.363Z,99.90
2019-05-12T18:06:35.074Z,99.90
2019-05-12T18:09:09.189Z,99.90
2019-05-12T18:11:39.830Z,99.90
2019-05-12T18:14:10.448Z,99.90
2019-05-12T18:16:43.388Z,99.90
2019-05-12T18:19:17.719Z,99.90
2019-05-12T18:21:45.177Z,99.90
2019-05-12T18:24:15.702Z,99.90
2019-05-12T18:26:54.526Z,99.90
2019-05-12T18:29:18.245Z,99.90
2019-05-12T18:31:48.900Z,99.90
2019-05-12T18:34:19.984Z,99.90
2019-05-12T18:36:58.126Z,99.90
2019-05-12T18:39:24.311Z,99.90
2019-05-12T18:41:55.090Z,99.90
2019-05-12T18:44:31.317Z,99.90
2019-05-12T18:46:57.581Z,99.90
2019-05-12T18:49:28.010Z,99.90
2019-05-12T18:54:28.051Z,99.90
2019-05-12T18:57:02.335Z,99.90
2019-05-12T18:59:30.536Z,99.90
2019-05-12T19:02:03.470Z,99.90
2019-05-12T19:04:34.017Z,99.90
2019-05-12T19:07:05.193Z,99.90
2019-05-12T19:09:35.621Z,99.90
2019-05-12T19:12:15.693Z,99.90
2019-05-12T19:14:40.385Z,99.90
2019-05-12T19:17:11.126Z,99.90
2019-05-12T19:19:45.998Z,99.90
2019-05-12T19:22:14.208Z,99.90
2019-05-12T19:24:44.668Z,99.90
2019-05-12T19:27:18.940Z,99.90
2019-05-12T19:29:49.243Z,99.90
2019-05-12T19:32:19.806Z,99.90
2019-05-12T19:34:50.299Z,99.90
2019-05-12T19:37:27.387Z,99.90
2019-05-12T19:39:53.821Z,99.90
2019-05-12T19:42:25.180Z,99.90
2019-05-12T19:44:59.698Z,99.90
2019-05-12T19:47:33.160Z,99.90
2019-05-12T19:50:08.770Z,99.90
2019-05-12T19:52:32.950Z,99.90
2019-05-12T19:55:03.792Z,99.90
2019-05-12T19:57:34.317Z,99.90
2019-05-12T20:00:05.199Z,99.90
2019-05-12T20:02:35.684Z,99.90
2019-05-12T20:05:07.034Z,99.90
2019-05-12T20:07:37.503Z,99.90
2019-05-12T20:10:08.099Z,99.90
2019-05-12T20:12:38.537Z,99.90
2019-05-12T20:15:09.456Z,99.90
2019-05-12T20:17:39.949Z,99.90
2019-05-12T20:20:10.915Z,99.90
2019-05-12T20:22:43.896Z,99.90
2019-05-12T20:25:14.534Z,99.90
2019-05-12T20:27:45.470Z,99.90
2019-05-12T20:30:20.823Z,99.90
2019-05-12T20:32:48.511Z,99.90
2019-05-12T20:35:19.224Z,99.90
2019-05-12T20:37:53.019Z,99.90
2019-05-12T20:40:23.887Z,99.90
2019-05-12T20:43:07.779Z,99.90
2019-05-12T20:45:26.151Z,99.90
2019-05-12T20:47:56.579Z,99.90
2019-05-12T20:50:32.952Z,99.90
2019-05-12T20:53:00.093Z,99.90
2019-05-12T20:55:36.616Z,99.90
2019-05-12T20:58:04.495Z,99.90
2019-05-12T21:00:38.886Z,99.90
2019-05-12T21:03:06.822Z,99.90
2019-05-12T21:05:37.255Z,99.90
2019-05-12T21:08:12.112Z,99.90
2019-05-12T21:10:39.786Z,99.90
2019-05-12T21:13:10.270Z,99.90
2019-05-12T21:15:42.936Z,99.90
2019-05-12T21:18:14.624Z,99.90
2019-05-12T21:20:46.485Z,99.90
2019-05-12T21:23:17.406Z,99.90
2019-05-12T21:25:52.468Z,99.90
2019-05-12T21:28:19.895Z,99.90
2019-05-12T21:30:50.326Z,99.90
2019-05-12T21:33:20.751Z,99.90
2019-05-12T21:35:54.510Z,99.90
2019-05-12T21:38:29.246Z,99.90
2019-05-12T21:40:56.501Z,99.90
2019-05-12T21:43:26.963Z,99.90
2019-05-12T21:56:04.050Z,99.90
2019-05-12T21:58:31.166Z,99.90
2019-05-12T22:01:06.905Z,99.90
2019-05-12T22:03:35.705Z,99.90
2019-05-12T22:06:15.537Z,99.90
2019-05-12T22:08:38.494Z,99.90
2019-05-12T22:11:11.391Z,99.90
2019-05-12T22:13:46.850Z,99.90
2019-05-12T22:16:14.173Z,99.90
2019-05-12T22:18:47.706Z,99.90
2019-05-12T22:21:17.811Z,99.90
2019-05-12T22:23:51.130Z,99.90
2019-05-12T22:26:20.287Z,99.90
2019-05-12T22:28:51.141Z,99.90
2019-05-12T22:31:24.133Z,99.90
2019-05-12T22:33:56.381Z,99.90
2019-05-12T22:36:29.990Z,99.90
2019-05-12T22:39:00.834Z,99.90
2019-05-12T22:41:35.253Z,99.90
2019-05-12T22:44:02.503Z,99.90
2019-05-12T22:46:35.752Z,99.90
2019-05-12T22:49:10.125Z,99.90
2019-05-12T22:51:38.392Z,99.90
2019-05-12T22:54:10.554Z,99.90
2019-05-12T22:56:40.886Z,99.90
2019-05-12T22:59:13.643Z,99.90
2019-05-12T23:01:46.757Z,99.90
2019-05-12T23:04:16.468Z,99.90
2019-05-12T23:06:46.963Z,99.90
2019-05-12T23:09:19.535Z,99.90
2019-05-12T23:11:49.489Z,99.90
2019-05-12T23:14:22.383Z,99.90
2019-05-12T23:16:54.375Z,99.90
2019-05-12T23:19:24.403Z,99.90
2019-05-12T23:21:58.727Z,99.90
2019-05-12T23:24:30.285Z,99.90
2019-05-12T23:26:59.017Z,99.90
2019-05-12T23:29:30.961Z,99.90
2019-05-12T23:32:07.385Z,99.90
2019-05-12T23:34:34.006Z,99.90
2019-05-12T23:37:04.401Z,99.90
2019-05-12T23:39:38.001Z,99.90
2019-05-12T23:42:06.898Z,99.90
2019-05-12T23:44:37.331Z,99.90
2019-05-12T23:47:07.868Z,99.90
2019-05-12T23:49:38.385Z,99.90
2019-05-12T23:52:08.813Z,99.90
2019-05-12T23:54:39.230Z,99.90
2019-05-12T23:57:12.838Z,99.90
2019-05-12T23:59:41.822Z,99.90
